Time;durP1;ratioP1;P1;durP2;ratioP2;P2;SDS_P1;SDS_P2;PMS_P1;PMS_P2;Temp;Humidity;BMP_temperature;BMP_pressure;BME280_temperature;BME280_humidity;BME280_pressure;Samples;Min_cycle;Max_cycle;Signal;HPM_P1;HPM_P2
2022/07/03 00:01:33;;;;;;;4.95;3.50;;;;;;;18.79;71.52;100278.94;6308247;22;20022;-89
2022/07/03 00:03:58;;;;;;;5.75;4.30;;;;;;;18.91;70.76;100277.06;6281756;22;20011;-89
2022/07/03 00:06:25;;;;;;;5.28;4.20;;;;;;;18.90;70.73;100267.06;6308797;22;20024;-89
2022/07/03 00:08:51;;;;;;;11.45;4.95;;;;;;;18.95;70.54;100275.59;6308441;22;20034;-89
2022/07/03 00:11:16;;;;;;;4.10;3.70;;;;;;;18.92;70.76;100275.81;6308897;22;20437;-88
2022/07/03 00:13:42;;;;;;;4.25;3.85;;;;;;;18.85;71.62;100276.19;6336354;22;20003;-89
2022/07/03 00:16:08;;;;;;;4.53;3.80;;;;;;;18.78;72.45;100282.22;6335569;22;20003;-88
2022/07/03 00:18:33;;;;;;;4.90;3.92;;;;;;;18.59;73.35;100271.22;6335768;22;20003;-88
2022/07/03 00:21:04;;;;;;;5.03;3.88;;;;;;;18.70;73.15;100272.63;6335517;22;20014;-87
2022/07/03 00:23:34;;;;;;;4.80;4.30;;;;;;;18.59;73.64;100265.59;6335614;22;20019;-88
2022/07/03 00:26:01;;;;;;;6.10;4.00;;;;;;;18.52;73.90;100265.22;6257979;22;20029;-88
2022/07/03 00:28:28;;;;;;;5.88;4.28;;;;;;;18.47;74.46;100255.41;6337481;22;20002;-86
2022/07/03 00:30:55;;;;;;;4.30;3.65;;;;;;;18.07;80.29;100263.66;6309494;22;20046;-87
2022/07/03 00:33:21;;;;;;;5.90;3.60;;;;;;;18.27;79.58;100266.56;6309793;22;20037;-87
2022/07/03 00:35:47;;;;;;;5.18;3.72;;;;;;;18.17;80.95;100267.91;6285463;22;19999;-89
2022/07/03 00:38:12;;;;;;;5.43;3.72;;;;;;;17.76;83.99;100271.72;6284999;22;20053;-88
2022/07/03 00:40:38;;;;;;;4.35;3.75;;;;;;;17.80;83.49;100259.06;6338546;22;20007;-88
2022/07/03 00:43:04;;;;;;;4.20;3.78;;;;;;;17.91;81.94;100256.47;6284789;22;20029;-88
2022/07/03 00:45:33;;;;;;;6.40;4.40;;;;;;;17.92;80.61;100246.00;6338492;22;20441;-88
2022/07/03 00:47:58;;;;;;;5.32;4.20;;;;;;;18.10;79.25;100259.88;6310772;22;20072;-87
2022/07/03 00:50:33;;;;;;;5.43;4.30;;;;;;;18.24;78.09;100255.53;6337228;22;20429;-89
2022/07/03 00:53:01;;;;;;;5.28;4.30;;;;;;;18.27;77.38;100246.91;6337652;22;20367;-86
2022/07/03 00:55:27;;;;;;;4.80;4.13;;;;;;;18.28;77.67;100256.84;6309966;22;20056;-86
2022/07/03 00:57:55;;;;;;;5.07;4.28;;;;;;;18.27;77.92;100246.91;6336304;22;20011;-87
2022/07/03 01:00:21;;;;;;;6.25;4.32;;;;;;;18.29;78.07;100237.97;6309149;22;20085;-87
2022/07/03 01:03:18;;;;;;;5.13;4.57;;;;;;;18.22;78.62;100244.78;6233039;22;20047;-84
2022/07/03 01:05:47;;;;;;;5.07;4.53;;;;;;;18.21;78.21;100240.41;6274921;22;20019;-84
2022/07/03 01:08:40;;;;;;;5.85;4.20;;;;;;;18.27;78.01;100241.28;6247846;22;20011;-84
2022/07/03 01:11:45;;;;;;;5.43;4.38;;;;;;;18.28;77.91;100237.19;6273667;22;20476;-84
2022/07/03 01:14:39;;;;;;;5.05;4.40;;;;;;;18.26;77.78;100222.88;6248652;22;20016;-85
2022/07/03 01:17:26;;;;;;;5.40;4.50;;;;;;;18.21;77.96;100206.72;6247161;22;20487;-84
2022/07/03 01:20:01;;;;;;;5.03;4.50;;;;;;;18.17;77.80;100208.94;6247875;22;20097;-84
2022/07/03 01:22:35;;;;;;;7.78;4.90;;;;;;;18.17;78.10;100214.56;6273987;22;20104;-86
2022/07/03 01:25:15;;;;;;;;;;;;;;;18.17;78.50;100217.38;6275149;22;20022;-88
2022/07/03 01:27:59;;;;;;;6.05;4.40;;;;;;;18.16;78.57;100222.19;6275194;22;19997;-88
2022/07/03 01:30:29;;;;;;;5.03;4.50;;;;;;;18.11;79.05;100206.06;6274604;22;20015;-88
2022/07/03 01:32:59;;;;;;;6.43;5.18;;;;;;;18.00;79.86;100213.50;6274588;22;20012;-88
2022/07/03 01:35:28;;;;;;;6.80;4.75;;;;;;;17.97;80.27;100211.66;6247336;22;20015;-88
2022/07/03 01:37:57;;;;;;;6.90;4.47;;;;;;;17.95;80.31;100195.31;6274432;22;20011;-87
2022/07/03 01:40:23;;;;;;;5.53;4.80;;;;;;;17.92;80.58;100206.72;6247589;22;20016;-88
2022/07/03 01:42:49;;;;;;;6.75;4.88;;;;;;;17.98;80.26;100216.03;6247060;22;20022;-87
2022/07/03 01:45:15;;;;;;;5.32;4.63;;;;;;;17.89;81.21;100204.88;6222458;22;20012;-88
2022/07/03 01:47:42;;;;;;;7.13;5.25;;;;;;;17.81;81.58;100198.88;6274252;22;20090;-87
2022/07/03 01:50:12;;;;;;;5.40;4.90;;;;;;;17.87;81.62;100210.22;6247526;22;20487;-88
2022/07/03 01:52:41;;;;;;;5.43;4.50;;;;;;;17.91;81.39;100205.97;6247180;22;20012;-87
2022/07/03 01:55:08;;;;;;;7.20;5.15;;;;;;;17.81;82.51;100201.69;6247709;22;20011;-87
2022/07/03 01:57:45;;;;;;;5.78;4.43;;;;;;;17.84;82.38;100200.72;6247996;22;20012;-88
2022/07/03 02:00:12;;;;;;;5.72;4.60;;;;;;;17.76;82.41;100202.34;6274481;22;20047;-87
2022/07/03 02:02:43;;;;;;;5.57;4.93;;;;;;;17.92;81.91;100192.69;6294777;22;20015;-89
2022/07/03 02:05:34;;;;;;;7.68;5.50;;;;;;;17.82;82.16;100202.47;6305348;22;20061;-88
2022/07/03 02:08:08;;;;;;;7.07;4.85;;;;;;;17.77;82.67;100203.91;6304565;22;20094;-87
2022/07/03 02:10:39;;;;;;;5.80;4.95;;;;;;;17.75;83.30;100194.44;6278274;22;20008;-88
2022/07/03 02:13:15;;;;;;;7.93;4.57;;;;;;;17.64;84.89;100192.97;6304911;22;20011;-88
2022/07/03 02:15:43;;;;;;;5.53;4.70;;;;;;;17.45;87.28;100197.16;6252159;22;20428;-87
2022/07/03 02:18:27;;;;;;;7.32;4.68;;;;;;;17.56;87.16;100179.75;6304331;22;20022;-84
2022/07/03 02:21:24;;;;;;;;;;;;;;;17.59;86.73;100179.59;6305891;22;20041;-84
2022/07/03 02:24:02;;;;;;;5.65;4.90;;;;;;;17.45;87.24;100185.16;6236696;22;19907;-84
2022/07/03 02:26:32;;;;;;;7.22;4.75;;;;;;;17.55;86.81;100190.19;6304635;22;20038;-84
2022/07/03 02:29:02;;;;;;;5.10;4.60;;;;;;;17.56;87.65;100179.75;6277474;22;20018;-84
2022/07/03 02:31:34;;;;;;;7.10;4.80;;;;;;;17.53;86.91;100178.72;6305251;22;20007;-84
2022/07/03 02:34:01;;;;;;;5.72;4.57;;;;;;;17.65;86.47;100188.91;6277651;22;20340;-85
2022/07/03 02:36:32;;;;;;;5.47;4.40;;;;;;;17.57;87.30;100198.97;6277688;22;20039;-84
2022/07/03 02:38:58;;;;;;;8.93;5.00;;;;;;;17.39;88.09;100175.88;6277242;22;20344;-84
2022/07/03 02:41:29;;;;;;;6.15;5.50;;;;;;;17.35;88.22;100187.25;6304563;22;20008;-84
2022/07/03 02:44:17;;;;;;;7.43;5.18;;;;;;;17.38;87.84;100197.53;6304682;22;20014;-84
2022/07/03 02:47:03;;;;;;;6.03;5.20;;;;;;;17.27;88.86;100199.34;6277369;22;20018;-84
2022/07/03 02:49:42;;;;;;;5.93;5.15;;;;;;;17.50;87.50;100199.31;6277400;22;20070;-84
2022/07/03 02:52:29;;;;;;;5.32;4.82;;;;;;;17.66;86.68;100201.69;6277437;22;20019;-84
2022/07/03 02:54:59;;;;;;;7.18;4.93;;;;;;;17.57;86.97;100193.34;6302664;22;20444;-84
2022/07/03 04:11:06;;;;;;;7.03;6.10;;;;;;;17.79;89.36;100195.03;6164423;22;1400619;-83
2022/07/03 04:13:31;;;;;;;7.43;6.32;;;;;;;17.86;88.50;100191.81;6183408;23;20335;-84
2022/07/03 04:15:57;;;;;;;6.28;5.65;;;;;;;18.00;88.15;100196.66;6183351;23;20013;-83
2022/07/03 04:18:23;;;;;;;6.78;5.93;;;;;;;18.19;88.01;100203.63;6183260;23;20102;-84
2022/07/03 04:20:48;;;;;;;6.13;5.53;;;;;;;18.41;87.63;100214.44;6183389;23;20430;-84
2022/07/03 04:23:14;;;;;;;7.53;5.50;;;;;;;18.41;87.28;100203.19;6183632;23;20517;-84
2022/07/03 04:25:39;;;;;;;7.03;6.05;;;;;;;18.06;88.09;100200.34;6184006;23;20013;-84
2022/07/03 04:28:05;;;;;;;8.27;6.13;;;;;;;18.04;89.22;100186.78;6183338;23;20339;-84
2022/07/03 04:30:30;;;;;;;7.53;6.45;;;;;;;18.08;87.81;100198.59;6182576;23;20016;-84
2022/07/03 04:32:56;;;;;;;6.75;6.03;;;;;;;18.07;87.27;100207.50;6181681;23;20410;-83
2022/07/03 04:35:21;;;;;;;7.70;5.97;;;;;;;18.11;87.38;100216.50;6183808;23;20095;-84
2022/07/03 04:37:47;;;;;;;7.38;6.60;;;;;;;18.27;86.10;100210.41;6181698;23;20040;-83
2022/07/03 04:40:13;;;;;;;7.70;6.00;;;;;;;18.42;85.82;100210.38;6181905;23;20395;-84
2022/07/03 04:42:39;;;;;;;6.60;6.00;;;;;;;18.37;86.22;100216.66;6183721;23;20009;-83
2022/07/03 04:45:05;;;;;;;7.70;6.60;;;;;;;18.33;86.12;100214.06;6180832;23;20017;-84
2022/07/03 04:47:31;;;;;;;8.68;6.50;;;;;;;18.48;85.41;100212.00;6183371;23;20019;-84
2022/07/03 04:49:56;;;;;;;7.72;6.70;;;;;;;18.57;85.03;100209.09;6181742;23;20002;-84
2022/07/03 04:52:22;;;;;;;8.52;6.45;;;;;;;18.56;84.18;100210.38;6183937;23;20013;-84
2022/07/03 04:54:47;;;;;;;6.90;6.20;;;;;;;18.66;84.96;100218.69;6187814;23;20347;-83
2022/07/03 04:57:13;;;;;;;10.27;6.85;;;;;;;18.75;85.48;100216.53;6189310;23;20028;-84
2022/07/03 04:59:38;;;;;;;7.07;6.38;;;;;;;18.89;85.00;100217.72;6184241;23;20118;-83
2022/07/03 05:02:04;;;;;;;8.90;6.53;;;;;;;19.05;84.60;100211.56;6182023;23;20503;-83
2022/07/03 05:04:30;;;;;;;8.05;6.55;;;;;;;19.17;85.50;100209.69;6155932;23;20013;-83
2022/07/03 05:06:55;;;;;;;8.40;6.15;;;;;;;19.23;84.65;100210.53;6180423;23;20347;-83
2022/07/03 05:09:22;;;;;;;7.03;5.20;;;;;;;19.37;87.80;100204.81;6180752;23;20068;-83
2022/07/03 05:11:48;;;;;;;8.23;5.47;;;;;;;19.61;87.83;100207.44;6205088;23;20012;-83
2022/07/03 05:14:13;;;;;;;7.40;5.95;;;;;;;19.67;87.33;100204.66;6184316;23;20013;-84
2022/07/03 05:16:39;;;;;;;5.78;5.18;;;;;;;19.78;86.17;100199.13;6184731;23;20016;-84
2022/07/03 05:19:04;;;;;;;6.80;5.47;;;;;;;19.94;85.34;100207.75;6210820;23;20013;-85
2022/07/03 05:21:31;;;;;;;7.10;5.47;;;;;;;19.96;85.26;100210.09;6212655;23;20009;-84
2022/07/03 05:23:56;;;;;;;6.18;5.57;;;;;;;20.04;84.94;100219.63;6212291;23;20027;-84
2022/07/03 05:26:22;;;;;;;6.70;5.78;;;;;;;20.28;83.77;100225.72;6213371;23;20005;-84
2022/07/03 05:28:47;;;;;;;6.32;5.38;;;;;;;20.55;82.90;100212.38;6212938;23;20023;-84
2022/07/03 05:31:13;;;;;;;7.15;6.03;;;;;;;20.83;80.20;100214.09;6186328;23;20011;-84
2022/07/03 05:33:38;;;;;;;5.80;5.18;;;;;;;21.08;79.84;100223.72;6212927;23;20019;-84
2022/07/03 05:36:04;;;;;;;6.40;5.70;;;;;;;21.43;77.12;100219.81;6212164;23;20083;-84
2022/07/03 05:41:14;;;;;;;6.65;5.47;;;;;;;21.59;76.07;100219.09;6211095;23;20119;-84
2022/07/03 05:43:40;;;;;;;6.80;5.53;;;;;;;21.90;73.32;100213.28;6161355;23;20009;-84
2022/07/03 05:46:06;;;;;;;6.55;5.38;;;;;;;22.22;71.65;100211.78;6212051;23;20336;-84
2022/07/03 05:48:31;;;;;;;6.60;5.90;;;;;;;22.31;70.69;100214.38;6185047;23;20012;-84
2022/07/03 05:50:57;;;;;;;6.55;5.95;;;;;;;22.58;70.04;100226.94;6212895;23;20357;-84
2022/07/03 05:53:22;;;;;;;6.93;5.97;;;;;;;22.68;69.65;100221.78;6184299;23;20061;-83
2022/07/03 05:55:48;;;;;;;8.02;6.15;;;;;;;22.78;66.82;100217.41;6213122;23;20020;-84
2022/07/03 05:58:14;;;;;;;6.35;5.75;;;;;;;22.98;66.22;100214.28;6184685;23;20019;-84
2022/07/03 06:00:39;;;;;;;6.10;5.50;;;;;;;23.21;68.45;100221.41;6186204;23;20108;-83
2022/07/03 06:03:05;;;;;;;8.18;6.10;;;;;;;23.54;66.93;100216.91;6185729;23;20042;-84
2022/07/03 06:05:32;;;;;;;6.78;5.47;;;;;;;23.75;66.85;100223.75;6212307;23;20031;-88
2022/07/03 06:07:58;;;;;;;5.97;5.38;;;;;;;23.98;64.77;100225.13;6188091;23;20008;-89
2022/07/03 06:10:24;;;;;;;5.85;5.22;;;;;;;24.10;64.84;100225.84;6212544;23;20012;-90
2022/07/03 06:12:49;;;;;;;5.63;5.13;;;;;;;23.98;63.46;100227.22;6211468;23;20477;-89
2022/07/03 06:15:15;;;;;;;5.78;5.18;;;;;;;24.25;60.55;100225.50;6211605;23;20475;-89
2022/07/03 06:17:41;;;;;;;5.40;4.90;;;;;;;24.39;56.68;100227.19;6159623;23;20020;-90
2022/07/03 06:20:07;;;;;;;5.88;5.28;;;;;;;24.56;54.85;100222.13;6211441;23;20496;-91
2022/07/03 06:22:33;;;;;;;4.60;4.10;;;;;;;24.56;52.25;100222.91;6211037;23;20347;-89
2022/07/03 06:25:01;;;;;;;4.38;3.92;;;;;;;24.89;50.25;100221.06;6184565;23;20016;-89
2022/07/03 06:27:27;;;;;;;4.28;3.88;;;;;;;24.96;49.58;100232.59;6211145;23;20036;-89
2022/07/03 06:29:52;;;;;;;4.90;4.40;;;;;;;25.13;50.92;100237.31;6184095;23;20432;-89
2022/07/03 06:32:18;;;;;;;5.43;4.20;;;;;;;25.39;50.79;100224.09;6210716;23;20012;-88
2022/07/03 06:34:43;;;;;;;4.63;4.03;;;;;;;25.67;48.88;100225.84;6211922;23;20086;-88
2022/07/03 06:37:09;;;;;;;4.80;3.53;;;;;;;25.14;45.52;100230.34;6184875;23;20016;-89
2022/07/03 06:39:35;;;;;;;6.90;3.95;;;;;;;24.98;47.02;100230.00;6183721;23;20016;-89
2022/07/03 06:42:01;;;;;;;5.07;3.80;;;;;;;25.22;49.13;100223.53;6210919;23;20039;-89
2022/07/03 06:44:27;;;;;;;4.32;3.92;;;;;;;25.39;48.26;100229.00;6184295;23;20008;-84
2022/07/03 06:46:52;;;;;;;4.30;3.90;;;;;;;25.44;48.14;100228.16;6160674;23;20013;-84
2022/07/03 06:49:18;;;;;;;4.30;3.90;;;;;;;26.07;47.54;100218.28;6183411;23;20059;-84
2022/07/03 06:51:43;;;;;;;4.13;3.72;;;;;;;26.11;45.85;100208.13;6212217;23;20044;-85
2022/07/03 06:54:09;;;;;;;4.20;3.80;;;;;;;26.31;47.04;100215.31;6211253;23;20406;-84
2022/07/03 06:56:35;;;;;;;4.57;4.18;;;;;;;26.93;46.34;100210.09;6159836;23;20009;-85
2022/07/03 06:59:00;;;;;;;6.72;4.45;;;;;;;27.03;45.28;100216.13;6211676;23;20039;-84
2022/07/03 07:01:25;;;;;;;4.20;3.80;;;;;;;27.14;44.89;100210.19;6184841;23;20311;-84
2022/07/03 07:03:51;;;;;;;4.38;3.60;;;;;;;27.34;46.38;100218.06;6185520;23;20019;-84
2022/07/03 07:06:19;;;;;;;5.35;4.15;;;;;;;26.99;48.26;100224.22;6211987;23;20430;-82
2022/07/03 07:08:45;;;;;;;5.97;4.57;;;;;;;26.66;48.75;100211.34;6184524;23;20016;-83
2022/07/03 07:11:11;;;;;;;4.63;4.07;;;;;;;26.91;46.92;100221.25;6158713;23;20426;-83
2022/07/03 07:13:36;;;;;;;5.50;4.15;;;;;;;26.79;45.98;100226.38;6206502;23;20127;-83
2022/07/03 07:16:02;;;;;;;4.22;3.67;;;;;;;27.02;45.32;100214.56;6184026;23;20012;-82
2022/07/03 07:18:28;;;;;;;5.70;3.28;;;;;;;26.98;45.30;100219.81;6209379;23;20138;-83
2022/07/03 07:20:53;;;;;;;4.85;4.00;;;;;;;27.02;44.69;100220.25;6211107;23;20009;-82
2022/07/03 07:23:19;;;;;;;4.95;3.88;;;;;;;26.39;45.50;100227.59;6210126;23;20265;-88
2022/07/03 07:25:44;;;;;;;4.10;3.67;;;;;;;26.50;44.80;100221.72;6157384;23;20043;-88
2022/07/03 07:28:12;;;;;;;3.65;3.35;;;;;;;26.38;45.72;100221.13;6208300;23;20027;-88
2022/07/03 07:30:39;;;;;;;4.85;3.47;;;;;;;26.28;44.76;100217.19;6184091;23;20422;-87
2022/07/03 07:33:08;;;;;;;4.20;3.40;;;;;;;27.05;44.38;100219.19;6210462;23;20394;-87
2022/07/03 07:35:34;;;;;;;3.85;3.33;;;;;;;27.17;43.50;100214.81;6210643;23;20012;-87
2022/07/03 07:37:59;;;;;;;3.55;3.25;;;;;;;27.77;42.22;100209.91;6210146;23;20023;-87
2022/07/03 07:40:25;;;;;;;4.32;3.20;;;;;;;27.76;43.10;100211.22;6182729;23;20020;-88
2022/07/03 07:42:50;;;;;;;5.95;3.58;;;;;;;27.70;41.89;100204.13;6209949;23;20391;-88
2022/07/03 07:45:16;;;;;;;7.35;3.50;;;;;;;28.23;40.75;100216.09;6185238;23;20016;-88
2022/07/03 07:47:41;;;;;;;5.13;3.10;;;;;;;28.33;38.88;100211.44;6212018;23;20068;-88
2022/07/03 07:50:08;;;;;;;4.35;3.10;;;;;;;28.36;39.08;100213.19;6212465;23;20083;-88
2022/07/03 07:52:33;;;;;;;3.35;2.90;;;;;;;27.87;40.48;100215.88;6185517;23;20714;-88
2022/07/03 07:54:59;;;;;;;5.05;2.78;;;;;;;28.12;39.31;100219.22;6212561;23;20031;-88
2022/07/03 07:57:24;;;;;;;4.32;2.67;;;;;;;28.26;38.21;100209.31;6184937;23;20009;-88
2022/07/03 07:59:50;;;;;;;3.13;2.42;;;;;;;27.85;37.25;100209.22;6212842;23;20446;-84
2022/07/03 08:07:44;;;;;;;3.55;2.60;;;;;;;28.19;36.90;100209.97;6211280;23;20459;-84
2022/07/03 08:10:09;;;;;;;2.83;2.50;;;;;;;28.03;37.89;100211.88;6158527;23;20009;-84
2022/07/03 08:12:35;;;;;;;3.20;2.50;;;;;;;28.67;36.15;100222.78;6182354;23;20025;-84
2022/07/03 08:15:00;;;;;;;2.80;2.40;;;;;;;28.98;34.32;100220.94;6159557;23;20022;-84
2022/07/03 08:17:26;;;;;;;2.65;2.20;;;;;;;28.88;37.01;100205.63;6158956;23;20012;-84
2022/07/03 08:19:52;;;;;;;3.95;2.50;;;;;;;29.31;35.77;100208.59;6159739;23;20017;-86
2022/07/03 08:22:17;;;;;;;4.45;2.70;;;;;;;29.38;36.69;100207.09;6157860;23;20008;-84
2022/07/03 08:24:43;;;;;;;2.85;2.55;;;;;;;29.54;37.29;100220.88;6183130;23;20012;-84
2022/07/03 08:27:08;;;;;;;4.10;3.25;;;;;;;29.10;37.83;100213.56;6208767;23;20374;-84
2022/07/03 08:29:34;;;;;;;4.20;2.90;;;;;;;29.58;38.82;100212.69;6210510;23;20028;-84
2022/07/03 08:31:59;;;;;;;3.92;3.00;;;;;;;29.93;36.66;100216.06;6183876;23;20088;-84
2022/07/03 08:34:25;;;;;;;3.35;3.05;;;;;;;29.78;37.07;100222.47;6180832;23;20013;-84
2022/07/03 08:36:51;;;;;;;3.42;3.10;;;;;;;28.97;38.30;100220.16;6209112;23;20017;-84
2022/07/03 08:39:19;;;;;;;4.32;2.80;;;;;;;28.97;38.60;100220.16;6184079;23;20016;-84
2022/07/03 08:41:45;;;;;;;3.42;2.95;;;;;;;28.67;39.93;100220.66;6209373;23;20043;-84
2022/07/03 08:44:12;;;;;;;4.13;2.50;;;;;;;29.18;38.45;100208.66;6210797;23;20037;-84
2022/07/03 08:46:38;;;;;;;2.58;2.30;;;;;;;29.27;38.54;100208.16;6159209;23;20036;-84
2022/07/03 08:49:06;;;;;;;2.60;2.40;;;;;;;29.33;36.59;100200.19;6182824;23;20009;-84
2022/07/03 08:51:35;;;;;;;3.00;2.55;;;;;;;29.29;37.24;100207.59;6134127;23;20422;-83
2022/07/03 08:54:03;;;;;;;3.08;2.40;;;;;;;29.72;36.93;100206.84;6210493;23;20019;-84
2022/07/03 08:56:28;;;;;;;3.08;2.63;;;;;;;30.23;37.00;100203.91;6210461;23;20071;-84
2022/07/03 08:58:57;;;;;;;2.50;2.17;;;;;;;30.41;34.20;100206.41;6183458;23;20020;-85
2022/07/03 09:01:24;;;;;;;4.38;2.53;;;;;;;30.38;35.29;100196.09;6185501;23;20013;-84
2022/07/03 09:03:51;;;;;;;3.30;2.30;;;;;;;30.56;33.56;100202.81;6160028;23;20023;-84
2022/07/03 09:06:17;;;;;;;3.47;2.53;;;;;;;30.37;34.97;100197.44;6185481;23;20573;-84
2022/07/03 09:08:43;;;;;;;4.03;2.60;;;;;;;30.07;35.37;100201.06;6160047;23;20093;-84
2022/07/03 09:11:10;;;;;;;2.88;2.50;;;;;;;29.84;36.26;100188.00;6208671;23;20017;-84
2022/07/03 09:13:36;;;;;;;3.42;2.47;;;;;;;29.89;35.87;100193.56;6208258;23;20028;-84
2022/07/03 09:16:01;;;;;;;2.65;2.15;;;;;;;30.21;34.42;100206.59;6184667;23;20359;-86
2022/07/03 09:18:41;;;;;;;2.40;2.20;;;;;;;30.72;33.10;100203.56;6184075;23;20024;-85
2022/07/03 09:21:08;;;;;;;3.13;1.98;;;;;;;30.80;32.79;100202.22;6210415;23;20012;-85
2022/07/03 09:23:42;;;;;;;3.63;2.10;;;;;;;30.40;33.35;100196.31;6210027;23;20092;-84
2022/07/03 09:26:16;;;;;;;4.75;2.55;;;;;;;30.26;34.44;100202.78;6183697;23;20092;-84
2022/07/03 09:28:50;;;;;;;3.10;2.30;;;;;;;29.98;35.06;100201.59;6210141;23;20051;-83
2022/07/03 09:31:18;;;;;;;2.90;2.30;;;;;;;30.19;34.65;100201.44;6210305;23;20021;-84
2022/07/03 09:34:04;;;;;;;3.83;2.40;;;;;;;29.81;34.73;100204.19;6210714;23;20393;-84
2022/07/03 09:36:43;;;;;;;3.75;2.40;;;;;;;30.35;34.88;100199.34;6185637;23;20016;-84
2022/07/03 09:39:26;;;;;;;3.60;2.50;;;;;;;30.68;35.72;100194.59;6208509;23;20099;-84
2022/07/03 09:42:04;;;;;;;2.58;2.20;;;;;;;30.80;33.04;100202.22;6182886;23;20016;-84
2022/07/03 09:44:41;;;;;;;3.13;2.40;;;;;;;30.70;34.42;100194.78;6207201;23;20020;-84
2022/07/03 09:47:23;;;;;;;3.83;2.33;;;;;;;30.59;33.54;100195.19;6181041;23;20358;-84
2022/07/03 09:49:54;;;;;;;4.18;2.40;;;;;;;30.76;35.42;100190.41;6208769;23;20021;-85
2022/07/03 09:52:32;;;;;;;4.78;2.50;;;;;;;30.48;33.97;100190.63;6183009;23;20023;-84
2022/07/03 09:55:09;;;;;;;4.65;2.80;;;;;;;30.70;34.64;100194.78;6210604;23;20497;-88
2022/07/03 09:58:00;;;;;;;4.15;2.80;;;;;;;30.65;34.93;100187.19;6210028;23;20016;-87
2022/07/03 10:00:27;;;;;;;3.28;2.78;;;;;;;31.23;35.17;100189.75;6210056;23;20147;-88
2022/07/03 10:03:06;;;;;;;3.03;2.70;;;;;;;31.95;35.10;100177.56;6184820;23;20024;-88
2022/07/03 10:05:36;;;;;;;5.88;2.65;;;;;;;31.73;33.58;100178.47;6210570;23;20358;-89
2022/07/03 10:08:03;;;;;;;2.70;2.35;;;;;;;30.93;34.65;100173.38;6209179;23;20058;-88
2022/07/03 10:10:32;;;;;;;3.47;2.50;;;;;;;31.04;35.07;100172.22;6158012;23;20009;-88
2022/07/03 10:12:58;;;;;;;3.47;2.80;;;;;;;31.71;34.96;100164.69;6182153;23;20062;-88
2022/07/03 10:15:25;;;;;;;3.83;2.50;;;;;;;30.46;35.98;100171.16;6181232;23;20014;-84
2022/07/03 10:17:56;;;;;;;4.43;2.90;;;;;;;30.69;36.68;100164.66;6210570;23;20012;-84
2022/07/03 10:20:28;;;;;;;4.75;2.70;;;;;;;31.04;36.13;100160.78;6210783;23;20095;-85
2022/07/03 10:22:55;;;;;;;3.08;2.75;;;;;;;31.41;35.00;100159.88;6210886;23;20019;-85
2022/07/03 10:25:21;;;;;;;5.43;3.10;;;;;;;31.40;34.72;100152.59;6183733;23;20011;-85
2022/07/03 10:27:47;;;;;;;3.53;2.78;;;;;;;31.25;34.80;100152.69;6184437;23;20060;-85
2022/07/03 10:30:20;;;;;;;4.40;3.00;;;;;;;31.27;36.51;100152.84;6184705;23;20019;-85
2022/07/03 10:32:48;;;;;;;3.72;2.70;;;;;;;31.46;35.00;100143.81;6184564;23;20426;-86
2022/07/03 10:35:44;;;;;;;5.07;2.75;;;;;;;31.29;35.23;100149.41;6211462;23;20005;-85
2022/07/03 10:38:21;;;;;;;4.22;2.95;;;;;;;30.93;35.10;100143.97;6142869;23;20036;-86
2022/07/03 10:46:32;;;;;;;4.38;2.75;;;;;;;32.22;33.93;100138.38;6189060;23;20362;-85
2022/07/03 10:49:08;;;;;;;4.95;3.28;;;;;;;32.05;35.45;100135.41;6210873;23;20016;-85
2022/07/03 10:51:46;;;;;;;4.38;2.90;;;;;;;32.45;34.41;100131.66;6185721;23;20005;-85
2022/07/03 10:54:12;;;;;;;4.65;2.80;;;;;;;32.60;34.86;100128.63;6210625;23;20017;-85
2022/07/03 10:57:01;;;;;;;3.20;2.85;;;;;;;32.70;35.80;100129.53;6210624;23;20004;-85
2022/07/03 10:59:36;;;;;;;4.75;2.67;;;;;;;32.94;34.77;100137.31;6183766;23;20072;-85
2022/07/03 11:02:24;;;;;;;4.15;3.03;;;;;;;32.73;34.18;100128.34;6211739;23;20019;-85
2022/07/03 11:05:01;;;;;;;3.80;2.95;;;;;;;32.60;34.05;100117.91;6184364;23;20347;-85
2022/07/03 11:07:34;;;;;;;4.40;2.90;;;;;;;32.17;36.77;100119.28;6211106;23;20015;-85
2022/07/03 11:10:08;;;;;;;4.57;3.03;;;;;;;32.65;34.39;100116.16;6210881;23;20029;-86
2022/07/03 11:12:53;;;;;;;4.25;3.03;;;;;;;32.16;35.57;100117.75;6210079;23;20017;-85
2022/07/03 11:15:31;;;;;;;3.80;3.00;;;;;;;32.08;34.61;100107.69;6211098;23;20019;-86
2022/07/03 11:18:15;;;;;;;5.20;2.85;;;;;;;32.56;33.86;100108.19;6211866;23;20008;-85
2022/07/03 11:20:41;;;;;;;4.68;3.22;;;;;;;32.93;34.66;100109.16;6212219;23;20016;-85
2022/07/03 11:23:09;;;;;;;4.78;2.83;;;;;;;33.09;35.47;100102.63;6212222;23;20001;-84
2022/07/03 11:25:46;;;;;;;4.18;2.88;;;;;;;33.58;34.91;100095.13;6211106;23;20024;-85
2022/07/03 11:28:34;;;;;;;6.32;2.90;;;;;;;33.45;34.44;100098.34;6186459;23;20009;-85
2022/07/03 11:31:18;;;;;;;4.85;3.00;;;;;;;33.05;33.44;100104.41;6196484;23;20024;-89
2022/07/03 11:33:53;;;;;;;4.30;2.97;;;;;;;33.20;33.19;100090.63;6184835;23;20019;-89
2022/07/03 11:36:21;;;;;;;5.75;3.40;;;;;;;32.34;34.92;100099.22;6208687;23;20020;-89
2022/07/03 11:39:06;;;;;;;4.25;2.80;;;;;;;32.78;33.56;100101.47;6212913;23;20036;-87
2022/07/03 11:41:35;;;;;;;5.05;2.85;;;;;;;33.03;33.25;100102.16;6211174;23;20017;-87
2022/07/03 11:44:06;;;;;;;5.97;3.58;;;;;;;32.87;34.97;100097.94;6213354;23;20015;-85
2022/07/03 11:46:34;;;;;;;4.28;3.33;;;;;;;33.27;33.69;100092.69;6185335;23;20020;-87
2022/07/03 11:49:18;;;;;;;4.93;2.80;;;;;;;33.37;33.73;100097.69;6211659;23;20457;-89
2022/07/03 11:52:13;;;;;;;5.55;3.00;;;;;;;33.87;33.41;100093.16;6211785;23;20257;-87
2022/07/03 11:54:53;;;;;;;5.78;3.03;;;;;;;33.96;34.24;100083.06;6187004;23;20116;-89
2022/07/03 11:57:18;;;;;;;5.38;3.28;;;;;;;33.48;33.30;100091.44;6161708;23;20091;-89
2022/07/03 11:59:44;;;;;;;4.03;2.90;;;;;;;33.37;33.03;100086.22;6186241;23;20096;-89
2022/07/03 12:02:10;;;;;;;3.72;3.20;;;;;;;33.53;33.66;100082.53;6211664;23;20797;-89
2022/07/03 12:04:35;;;;;;;5.10;2.70;;;;;;;33.32;34.01;100076.53;6185929;23;20020;-89
2022/07/03 12:07:01;;;;;;;4.15;3.00;;;;;;;33.30;34.91;100076.34;6211512;23;20103;-89
2022/07/03 12:09:36;;;;;;;4.28;2.70;;;;;;;33.48;32.70;100074.19;6160588;23;20019;-88
2022/07/03 12:12:06;;;;;;;4.85;3.10;;;;;;;33.43;33.61;100072.34;6185726;23;20025;-88
2022/07/03 12:14:48;;;;;;;6.18;3.25;;;;;;;33.60;33.15;100057.91;6211599;23;20016;-88
2022/07/03 12:17:17;;;;;;;4.85;3.00;;;;;;;33.86;33.05;100068.63;6184848;23;20017;-88
2022/07/03 12:20:00;;;;;;;7.22;2.95;;;;;;;33.78;32.32;100067.97;6212221;23;20012;-88
2022/07/03 12:22:33;;;;;;;4.13;2.95;;;;;;;33.35;31.94;100060.19;6185507;23;20024;-88
2022/07/03 12:25:02;;;;;;;5.03;3.00;;;;;;;32.62;33.13;100054.19;6208330;23;20092;-89
2022/07/03 12:27:32;;;;;;;3.83;3.10;;;;;;;32.95;34.29;100052.66;6210507;23;20020;-88
2022/07/03 12:29:58;;;;;;;3.95;2.70;;;;;;;33.41;34.65;100046.28;6159919;23;20543;-89
2022/07/03 12:32:23;;;;;;;3.95;2.78;;;;;;;33.85;31.47;100044.06;6210953;23;20093;-87
2022/07/03 12:34:49;;;;;;;4.18;2.88;;;;;;;33.93;29.84;100050.47;6211936;23;20008;-87
2022/07/03 12:37:15;;;;;;;4.45;2.88;;;;;;;33.64;31.30;100046.72;6184880;23;20028;-88
2022/07/03 12:39:42;;;;;;;6.22;3.20;;;;;;;33.62;33.85;100035.03;6159780;23;20020;-87
2022/07/03 12:42:18;;;;;;;5.00;2.88;;;;;;;34.06;32.14;100044.28;6184114;23;20013;-88
2022/07/03 12:44:55;;;;;;;5.40;2.90;;;;;;;33.97;30.69;100044.28;6212037;23;20008;-88
2022/07/03 12:47:21;;;;;;;3.88;3.15;;;;;;;34.35;30.77;100043.63;6211190;23;20015;-87
2022/07/03 12:49:46;;;;;;;4.35;3.10;;;;;;;34.28;32.13;100044.53;6212750;23;20020;-88
2022/07/03 12:52:12;;;;;;;4.07;2.95;;;;;;;34.42;32.17;100042.72;6211455;23;20379;-87
2022/07/03 12:54:37;;;;;;;4.20;3.10;;;;;;;33.67;30.88;100039.78;6157695;23;20355;-87
2022/07/03 13:00:17;;;;;;;4.03;3.05;;;;;;;33.41;32.94;100034.78;6162481;23;20021;-88
2022/07/03 13:02:45;;;;;;;4.88;3.03;;;;;;;33.52;32.31;100040.75;6184768;23;20013;-88
2022/07/03 13:05:24;;;;;;;4.00;3.05;;;;;;;33.68;32.42;100033.44;6211432;23;20339;-85
2022/07/03 13:07:51;;;;;;;5.22;3.03;;;;;;;33.83;31.50;100025.91;6185625;23;20114;-85
2022/07/03 13:10:18;;;;;;;4.05;2.85;;;;;;;34.47;31.20;100033.03;6209508;23;20793;-84